| Date | Time | Temp. (oF) | Dew Point (oF) | Rel. Hum. (%) | Press. (in.) | Wind Dir. (deg.) | Wind Speed (mph) | Hourly Rainfall (i n.) |
|
|---|---|---|---|---|---|---|---|---|---|
| 1 | 06/20 | 24:00 | 63 | 47 | 58 | 30.54 | 130 | 0 | 0.00 |
| 2 | 06/19 | 23:00 | 65 | 47 | 54 | 30.55 | 150 | 2 | 0.00 |
| 3 | 06/19 | 22:00 | 67 | 50 | 55 | 30.54 | 130 | 2 | 0.00 |
| 4 | 06/19 | 21:00 | 69 | 52 | 55 | 30.52 | 160 | 4 | 0.00 |
| 5 | 06/19 | 20:00 | 72 | 52 | 51 | 30.52 | 150 | 0 | 0.00 |
| 6 | 06/19 | 19:00 | 74 | 49 | 43 | 30.53 | 150 | 2 | 0.00 |
| 7 | 06/19 | 18:00 | 75 | 49 | 41 | 30.56 | 150 | 2 | 0.00 |
| 8 | 06/19 | 17:00 | 76 | 49 | 40 | 30.55 | 250 | 2 | 0.00 |
| 9 | 06/19 | 16:00 | 76 | 50 | 41 | 30.53 | 130 | 4 | 0.00 |
| 10 | 06/19 | 15:00 | 75 | 49 | 41 | 30.53 | 130 | 2 | 0.00 |
| 11 | 06/19 | 14:00 | 78 | 50 | 39 | 30.53 | 150 | 1 | 0.00 |
| 12 | 06/19 | 13:00 | 79 | 53 | 42 | 30.53 | 340 | 2 | 0.00 |
| 13 | 06/19 | 12:00 | 79 | 53 | 42 | 30.52 | 290 | 7 | 0.00 |
| 14 | 06/19 | 11:00 | 75 | 54 | 50 | 30.51 | 150 | 2 | 0.00 |
| 15 | 06/19 | 10:00 | 65 | 55 | 71 | 30.51 | 90 | 1 | 0.00 |
| 16 | 06/19 | 09:00 | 59 | 54 | 86 | 30.51 | 70 | 2 | 0.00 |
| 17 | 06/19 | 08:00 | 54 | 51 | 91 | 30.50 | 30 | 0 | 0.00 |
| 18 | 06/19 | 07:00 | 51 | 47 | 89 | 30.48 | 30 | 0 | 0.00 |
| 19 | 06/19 | 06:00 | 51 | 47 | 87 | 30.46 | 30 | 0 | 0.00 |
| 20 | 06/19 | 05:00 | 51 | 46 | 86 | 30.46 | 30 | 0 | 0.00 |
| 21 | 06/19 | 04:00 | 52 | 47 | 85 | 30.45 | 30 | 0 | 0.00 |
| 22 | 06/19 | 03:00 | 53 | 48 | 84 | 30.44 | 30 | 0 | 0.00 |
| 23 | 06/19 | 02:00 | 54 | 48 | 82 | 30.44 | 30 | 0 | 0.00 |
| 24 | 06/19 | 01:00 | 56 | 49 | 80 | 30.44 | 30 | 0 | 0.00 |